createdAt,value
2019-02-26T00:00:47.322Z,6.20
2019-02-26T00:03:28.635Z,6.20
2019-02-26T00:06:09.305Z,6.10
2019-02-26T00:08:51.489Z,6.10
2019-02-26T00:11:33.408Z,6.10
2019-02-26T00:14:17.516Z,6.00
2019-02-26T00:16:56.412Z,5.90
2019-02-26T00:19:36.412Z,6.00
2019-02-26T00:22:18.150Z,6.10
2019-02-26T00:24:57.920Z,6.10
2019-02-26T00:27:38.222Z,5.90
2019-02-26T00:30:18.613Z,6.00
2019-02-26T00:33:00.120Z,5.90
2019-02-26T00:35:41.647Z,5.90
2019-02-26T00:38:22.684Z,5.90
2019-02-26T00:41:03.925Z,6.00
2019-02-26T00:43:44.923Z,5.80
2019-02-26T00:46:12.803Z,5.90
2019-02-26T00:49:00.896Z,5.80
2019-02-26T00:51:45.923Z,5.80
2019-02-26T00:54:26.272Z,5.90
2019-02-26T00:57:08.696Z,5.70
2019-02-26T00:59:48.416Z,5.80
2019-02-26T01:02:28.736Z,5.70
2019-02-26T01:05:11.303Z,5.60
2019-02-26T01:07:54.405Z,5.50
2019-02-26T01:10:34.582Z,5.70
2019-02-26T01:13:16.292Z,5.40
2019-02-26T01:15:56.325Z,5.50
2019-02-26T01:18:36.885Z,5.50
2019-02-26T01:21:16.636Z,5.40
2019-02-26T01:23:58.933Z,5.30
2019-02-26T01:26:42.679Z,5.40
2019-02-26T01:29:23.086Z,5.30
2019-02-26T01:32:03.072Z,5.30
2019-02-26T01:34:44.997Z,5.20
2019-02-26T01:37:27.693Z,5.30
2019-02-26T01:40:12.244Z,5.40
2019-02-26T01:45:35.484Z,5.20
2019-02-26T01:48:22.538Z,5.10
2019-02-26T01:51:03.417Z,5.20
2019-02-26T01:53:45.184Z,5.00
2019-02-26T01:56:25.530Z,5.20
2019-02-26T01:59:05.644Z,5.00
2019-02-26T02:01:46.518Z,5.10
2019-02-26T02:04:28.048Z,4.90
2019-02-26T02:07:08.468Z,5.10
2019-02-26T02:09:50.698Z,4.90
2019-02-26T02:12:18.225Z,4.90
2019-02-26T02:15:05.913Z,4.90
2019-02-26T02:17:46.002Z,5.00
2019-02-26T02:20:26.176Z,5.10
2019-02-26T02:23:07.105Z,4.80
2019-02-26T02:25:47.440Z,4.80
2019-02-26T02:28:28.589Z,5.20
2019-02-26T02:31:09.610Z,5.30
2019-02-26T02:33:49.846Z,5.60
2019-02-26T02:36:30.181Z,5.30
2019-02-26T02:39:13.024Z,5.40
2019-02-26T02:41:54.853Z,5.40
2019-02-26T02:44:34.432Z,5.30
2019-02-26T02:47:14.781Z,5.10
2019-02-26T02:49:55.241Z,5.20
2019-02-26T02:52:37.788Z,5.20
2019-02-26T02:55:19.332Z,5.10
2019-02-26T02:58:00.510Z,4.90
2019-02-26T03:00:40.344Z,4.90
2019-02-26T03:03:20.336Z,5.00
2019-02-26T03:06:01.769Z,4.80
2019-02-26T03:08:45.101Z,5.00
2019-02-26T03:11:24.586Z,4.80
2019-02-26T03:14:06.230Z,4.70
2019-02-26T03:16:47.963Z,4.70
2019-02-26T03:19:30.410Z,4.70
2019-02-26T03:22:12.878Z,4.70
2019-02-26T03:24:54.484Z,4.60
2019-02-26T03:27:36.882Z,4.60
2019-02-26T03:30:26.607Z,4.50
2019-02-26T03:33:04.177Z,4.50
2019-02-26T03:35:41.009Z,4.30
2019-02-26T03:38:23.359Z,4.30
2019-02-26T03:41:03.705Z,4.50
2019-02-26T03:43:44.324Z,4.50
2019-02-26T03:46:24.372Z,4.20
2019-02-26T03:49:04.441Z,4.40
2019-02-26T03:51:44.479Z,4.10
2019-02-26T03:54:24.686Z,4.00
2019-02-26T03:57:04.497Z,4.10
2019-02-26T03:59:44.627Z,4.20
2019-02-26T04:02:24.749Z,4.30
2019-02-26T04:05:08.272Z,3.90
2019-02-26T04:07:44.932Z,3.90
2019-02-26T04:10:32.054Z,3.90
2019-02-26T04:13:11.684Z,4.00
2019-02-26T04:15:54.105Z,3.80
2019-02-26T04:18:34.740Z,3.80
2019-02-26T04:21:18.130Z,3.80
2019-02-26T04:23:58.624Z,3.70
2019-02-26T04:26:39.360Z,3.60
2019-02-26T04:29:19.455Z,3.70
2019-02-26T04:31:59.615Z,3.60
2019-02-26T04:34:39.697Z,3.60
2019-02-26T04:37:19.832Z,3.80
2019-02-26T04:40:02.409Z,3.70
2019-02-26T04:42:45.502Z,3.60
2019-02-26T04:45:24.561Z,3.60
2019-02-26T04:48:04.668Z,3.60
2019-02-26T04:50:44.767Z,3.40
2019-02-26T04:53:25.815Z,3.60
2019-02-26T04:56:12.108Z,3.60
2019-02-26T04:58:49.031Z,3.60
2019-02-26T05:01:29.085Z,3.50
2019-02-26T05:04:09.425Z,3.80
2019-02-26T05:06:49.607Z,3.60
2019-02-26T05:09:30.613Z,3.80
2019-02-26T05:12:11.912Z,3.60
2019-02-26T05:14:51.953Z,3.60
2019-02-26T05:17:33.322Z,3.60
2019-02-26T05:20:15.620Z,3.30
2019-02-26T05:22:57.770Z,3.60
2019-02-26T05:25:39.764Z,3.50
2019-02-26T05:28:19.455Z,3.50
2019-02-26T05:31:00.042Z,3.40
2019-02-26T05:33:40.090Z,3.40
2019-02-26T05:36:20.116Z,3.40
2019-02-26T05:39:02.178Z,3.40
2019-02-26T05:41:42.511Z,3.40
2019-02-26T05:44:22.419Z,3.50
2019-02-26T05:47:02.574Z,3.50
2019-02-26T05:49:45.311Z,3.40
2019-02-26T05:52:27.286Z,3.40
2019-02-26T05:55:06.809Z,3.50
2019-02-26T05:57:46.844Z,3.40
2019-02-26T06:00:30.615Z,3.40
2019-02-26T06:03:10.429Z,3.50
2019-02-26T06:05:51.905Z,3.40
2019-02-26T06:08:35.830Z,3.40
2019-02-26T06:11:17.031Z,3.40
2019-02-26T06:13:58.944Z,3.50
2019-02-26T06:16:39.323Z,3.30
2019-02-26T06:19:19.257Z,3.30
2019-02-26T06:21:59.557Z,3.30
2019-02-26T06:24:39.590Z,3.40
2019-02-26T06:27:21.939Z,3.60
2019-02-26T06:30:05.963Z,3.40
2019-02-26T06:32:44.751Z,3.20
2019-02-26T06:35:25.001Z,3.40
2019-02-26T06:38:06.954Z,3.40
2019-02-26T06:40:49.139Z,3.40
2019-02-26T06:43:30.885Z,3.40
2019-02-26T06:46:12.341Z,3.70
2019-02-26T06:48:53.613Z,3.50
2019-02-26T06:51:33.817Z,3.40
2019-02-26T06:54:15.480Z,3.50
2019-02-26T07:02:56.114Z,3.90
2019-02-26T07:05:36.152Z,3.80
2019-02-26T07:08:16.422Z,3.70
2019-02-26T07:10:56.340Z,4.00
2019-02-26T07:13:39.124Z,4.00
2019-02-26T07:16:20.716Z,4.20
2019-02-26T07:21:45.588Z,4.50
2019-02-26T07:24:27.151Z,4.80
2019-02-26T07:27:09.043Z,4.60
2019-02-26T07:29:52.272Z,4.80
2019-02-26T07:32:31.032Z,5.00
2019-02-26T07:35:13.569Z,5.40
2019-02-26T07:37:54.533Z,6.20
2019-02-26T07:40:36.007Z,6.60
2019-02-26T07:43:19.482Z,7.60
2019-02-26T07:45:59.317Z,8.60
2019-02-26T07:48:39.383Z,9.60
2019-02-26T07:51:19.405Z,10.50
2019-02-26T07:54:00.731Z,11.40
2019-02-26T07:56:40.673Z,12.00
2019-02-26T07:59:27.421Z,12.70
2019-02-26T08:02:03.747Z,13.00
2019-02-26T08:04:45.177Z,13.60
2019-02-26T08:07:26.743Z,13.80
2019-02-26T08:10:08.242Z,14.10
2019-02-26T08:12:49.597Z,14.30
2019-02-26T08:15:30.291Z,14.50
2019-02-26T08:18:12.216Z,14.70
2019-02-26T08:20:54.647Z,15.00
2019-02-26T08:23:34.460Z,15.30
2019-02-26T08:26:16.923Z,15.30
2019-02-26T08:28:45.897Z,15.50
2019-02-26T08:31:33.159Z,15.70
2019-02-26T08:34:15.102Z,16.00
2019-02-26T08:36:55.225Z,16.40
2019-02-26T08:39:35.674Z,16.50
2019-02-26T08:42:18.192Z,16.80
2019-02-26T08:44:58.553Z,17.20
2019-02-26T08:47:38.597Z,17.30
2019-02-26T08:50:18.762Z,17.70
2019-02-26T08:52:58.932Z,17.80
2019-02-26T08:55:38.947Z,18.10
2019-02-26T08:58:18.941Z,18.40
2019-02-26T09:00:59.048Z,18.40
2019-02-26T09:03:40.948Z,18.80
2019-02-26T09:06:21.574Z,18.80
2019-02-26T09:09:02.847Z,18.50
2019-02-26T09:11:31.845Z,18.90
2019-02-26T09:14:20.052Z,19.00
2019-02-26T09:17:01.961Z,19.20
2019-02-26T09:19:42.248Z,19.50
2019-02-26T09:22:23.589Z,19.80
2019-02-26T09:25:02.812Z,19.90
2019-02-26T09:27:50.027Z,20.30
2019-02-26T09:30:31.757Z,20.40
2019-02-26T09:33:12.823Z,20.40
2019-02-26T09:35:54.532Z,20.30
2019-02-26T09:38:35.210Z,20.50
2019-02-26T09:41:16.689Z,20.80
2019-02-26T09:43:59.184Z,21.30
2019-02-26T09:46:41.226Z,21.40
2019-02-26T09:49:21.589Z,21.70
2019-02-26T09:52:03.813Z,21.80
2019-02-26T09:54:46.349Z,22.10
2019-02-26T09:57:28.068Z,22.40
2019-02-26T10:00:07.951Z,22.90
2019-02-26T10:02:49.496Z,23.10
2019-02-26T10:05:30.330Z,23.50
2019-02-26T10:08:10.137Z,23.80
2019-02-26T10:10:52.001Z,24.00
2019-02-26T10:13:32.232Z,24.10
2019-02-26T10:16:12.396Z,24.40
2019-02-26T10:18:54.380Z,24.60
2019-02-26T10:21:34.926Z,25.00
2019-02-26T10:24:14.538Z,25.40
2019-02-26T10:27:03.707Z,25.60
2019-02-26T10:29:45.139Z,25.60
2019-02-26T10:32:26.451Z,25.80
2019-02-26T10:38:08.246Z,26.20
2019-02-26T10:40:53.914Z,26.10
2019-02-26T10:43:30.267Z,26.20
2019-02-26T10:46:09.992Z,26.30
2019-02-26T10:48:51.115Z,26.20
2019-02-26T10:51:32.312Z,26.30
2019-02-26T10:54:17.658Z,26.30
2019-02-26T10:56:57.175Z,26.30
2019-02-26T10:59:37.101Z,26.30
2019-02-26T11:02:17.789Z,26.30
2019-02-26T11:04:59.165Z,26.30
2019-02-26T11:07:40.179Z,26.40
2019-02-26T11:10:07.826Z,26.30
2019-02-26T11:12:58.632Z,26.60
2019-02-26T11:15:43.676Z,26.80
2019-02-26T11:18:24.172Z,27.10
2019-02-26T11:21:04.356Z,27.40
2019-02-26T11:23:46.286Z,27.70
2019-02-26T11:26:26.693Z,28.10
2019-02-26T11:29:07.042Z,28.30
2019-02-26T11:31:49.693Z,28.50
2019-02-26T11:34:31.479Z,28.80
2019-02-26T11:37:11.780Z,29.00
2019-02-26T11:39:54.638Z,29.30
2019-02-26T11:42:34.708Z,29.60
2019-02-26T11:45:16.626Z,29.70
2019-02-26T11:47:44.077Z,30.00
2019-02-26T11:50:26.957Z,30.40
2019-02-26T11:53:09.294Z,30.50
2019-02-26T11:55:49.366Z,30.80
2019-02-26T11:58:30.229Z,31.00
2019-02-26T12:01:13.253Z,31.10
2019-02-26T12:03:55.944Z,31.20
2019-02-26T12:06:35.320Z,31.30
2019-02-26T12:09:16.137Z,31.40
2019-02-26T12:11:44.585Z,31.60
2019-02-26T12:14:31.585Z,31.80
2019-02-26T12:17:12.168Z,31.90
2019-02-26T12:19:53.366Z,31.80
2019-02-26T12:22:34.245Z,31.90
2019-02-26T12:25:14.388Z,32.30
2019-02-26T12:31:07.850Z,32.60
2019-02-26T12:33:48.161Z,32.70
2019-02-26T12:36:29.899Z,32.80
2019-02-26T12:42:22.185Z,33.20
2019-02-26T12:45:04.893Z,33.20
2019-02-26T12:47:46.323Z,33.30
2019-02-26T12:50:29.061Z,33.30
2019-02-26T12:53:09.521Z,33.40
2019-02-26T12:55:50.121Z,33.60
2019-02-26T12:58:30.025Z,33.80
2019-02-26T13:00:57.671Z,33.70
2019-02-26T13:03:49.761Z,33.60
2019-02-26T13:06:27.636Z,33.60
2019-02-26T13:09:08.024Z,33.60
2019-02-26T13:12:00.531Z,33.50
2019-02-26T13:14:29.884Z,33.40
2019-02-26T13:17:13.673Z,33.30
2019-02-26T13:19:57.650Z,33.20
2019-02-26T13:22:34.517Z,33.10
2019-02-26T13:25:17.559Z,32.90
2019-02-26T13:27:56.901Z,32.80
2019-02-26T13:30:37.461Z,32.80
2019-02-26T13:33:18.076Z,32.90
2019-02-26T13:36:01.853Z,32.80
2019-02-26T13:38:45.031Z,33.00
2019-02-26T13:41:28.771Z,33.10
2019-02-26T13:43:59.848Z,33.30
2019-02-26T13:46:39.904Z,33.40
2019-02-26T13:49:20.144Z,33.50
2019-02-26T13:52:00.180Z,33.10
2019-02-26T13:54:40.333Z,32.90
2019-02-26T13:57:20.523Z,32.70
2019-02-26T14:00:00.647Z,32.50
2019-02-26T14:02:40.804Z,32.50
2019-02-26T14:05:20.940Z,32.50
2019-02-26T14:08:01.279Z,32.70
2019-02-26T14:10:41.556Z,32.80
2019-02-26T14:16:20.437Z,32.70
2019-02-26T14:19:00.786Z,32.80
2019-02-26T14:21:41.104Z,32.90
2019-02-26T14:24:21.194Z,33.20
2019-02-26T14:27:01.580Z,33.40
2019-02-26T14:29:41.964Z,33.40
2019-02-26T14:32:10.236Z,33.30
2019-02-26T14:34:57.579Z,33.40
2019-02-26T14:37:44.656Z,33.70
2019-02-26T14:40:25.049Z,33.80
2019-02-26T14:43:06.048Z,33.80
2019-02-26T14:45:46.450Z,34.00
2019-02-26T14:48:26.408Z,34.20
2019-02-26T14:51:06.557Z,34.20
2019-02-26T14:53:46.866Z,34.10
2019-02-26T14:56:27.046Z,34.10
2019-02-26T14:59:07.165Z,33.90
2019-02-26T15:01:48.726Z,33.90
2019-02-26T15:04:29.407Z,33.80
2019-02-26T15:07:09.548Z,33.70
2019-02-26T15:09:49.717Z,33.70
2019-02-26T15:12:29.784Z,33.70
2019-02-26T15:15:10.137Z,33.60
2019-02-26T15:17:49.933Z,33.50
2019-02-26T15:20:30.030Z,33.50
2019-02-26T15:22:57.641Z,33.60
2019-02-26T15:25:44.653Z,33.40
2019-02-26T15:28:31.661Z,33.30
2019-02-26T15:34:10.586Z,33.00
2019-02-26T15:36:51.656Z,32.80
2019-02-26T15:39:31.491Z,32.70
2019-02-26T15:42:11.976Z,32.70
2019-02-26T15:44:51.897Z,32.50
2019-02-26T15:47:32.594Z,32.20
2019-02-26T15:50:01.269Z,32.20
2019-02-26T15:52:40.957Z,32.10
2019-02-26T15:55:21.036Z,31.90
2019-02-26T15:58:03.965Z,31.80
2019-02-26T16:00:44.254Z,31.60
2019-02-26T16:03:24.292Z,31.50
2019-02-26T16:06:04.993Z,31.30
2019-02-26T16:08:47.656Z,31.20
2019-02-26T16:11:27.420Z,31.00
2019-02-26T16:13:57.651Z,30.50
2019-02-26T16:16:44.673Z,30.20
2019-02-26T16:19:24.503Z,29.80
2019-02-26T16:22:06.622Z,29.20
2019-02-26T16:24:46.787Z,28.70
2019-02-26T16:27:26.796Z,27.80
2019-02-26T16:32:52.785Z,26.40
2019-02-26T16:35:42.873Z,25.70
2019-02-26T16:38:23.067Z,24.90
2019-02-26T16:41:04.933Z,24.10
2019-02-26T16:43:47.241Z,23.30
2019-02-26T16:46:28.921Z,22.70
2019-02-26T16:49:08.798Z,22.10
2019-02-26T16:51:49.101Z,21.50
2019-02-26T16:54:16.989Z,21.00
2019-02-26T16:57:04.044Z,20.50
2019-02-26T16:59:51.076Z,20.10
2019-02-26T17:02:30.838Z,19.40
2019-02-26T17:05:14.325Z,18.90
2019-02-26T17:07:53.132Z,18.40
2019-02-26T17:10:33.264Z,17.80
2019-02-26T17:13:13.382Z,17.50
2019-02-26T17:15:53.952Z,16.90
2019-02-26T17:18:33.568Z,16.60
2019-02-26T17:21:13.764Z,16.10
2019-02-26T17:23:53.840Z,15.80
2019-02-26T17:26:34.011Z,15.50
2019-02-26T17:29:14.863Z,15.10
2019-02-26T17:31:56.373Z,15.00
2019-02-26T17:34:36.305Z,14.70
2019-02-26T17:37:16.684Z,14.50
2019-02-26T17:39:56.819Z,14.10
2019-02-26T17:42:39.915Z,14.20
2019-02-26T17:45:20.029Z,13.90
2019-02-26T17:48:00.245Z,13.90
2019-02-26T17:50:43.467Z,13.50
2019-02-26T17:53:22.670Z,13.30
2019-02-26T17:56:03.049Z,13.10
2019-02-26T17:58:30.867Z,13.10
2019-02-26T18:01:05.984Z,12.90
2019-02-26T18:03:53.076Z,12.90
2019-02-26T18:06:33.041Z,12.70
2019-02-26T18:09:12.931Z,12.50
2019-02-26T18:11:53.097Z,12.50
2019-02-26T18:14:33.444Z,12.30
2019-02-26T18:17:13.653Z,12.40
2019-02-26T18:19:54.041Z,12.10
2019-02-26T18:22:34.298Z,12.10
2019-02-26T18:25:15.632Z,12.00
2019-02-26T18:27:56.029Z,12.00
2019-02-26T18:30:35.792Z,11.80
2019-02-26T18:33:15.925Z,11.70
2019-02-26T18:35:56.254Z,11.60
2019-02-26T18:38:36.517Z,11.50
2019-02-26T18:41:16.611Z,11.50
2019-02-26T18:44:03.734Z,11.30
2019-02-26T18:46:43.920Z,11.30
2019-02-26T18:49:23.901Z,11.40
2019-02-26T18:52:03.945Z,11.30
2019-02-26T18:54:44.192Z,11.10
2019-02-26T18:57:24.869Z,11.20
2019-02-26T19:03:03.448Z,11.00
2019-02-26T19:05:43.742Z,11.20
2019-02-26T19:08:11.426Z,10.90
2019-02-26T19:10:38.964Z,10.90
2019-02-26T19:13:06.662Z,10.90
2019-02-26T19:15:34.389Z,10.90
2019-02-26T19:18:03.293Z,10.80
2019-02-26T19:20:31.091Z,10.80
2019-02-26T19:22:59.517Z,10.80
2019-02-26T19:25:27.132Z,10.70
2019-02-26T19:27:54.723Z,10.70
2019-02-26T19:30:22.416Z,10.60
2019-02-26T19:32:50.041Z,10.60
2019-02-26T19:35:17.617Z,10.50
2019-02-26T19:37:45.700Z,10.50
2019-02-26T19:40:15.287Z,10.40
2019-02-26T19:42:43.019Z,10.40
2019-02-26T19:45:11.870Z,10.20
2019-02-26T19:47:39.538Z,10.20
2019-02-26T19:50:11.627Z,10.10
2019-02-26T19:52:37.999Z,10.20
2019-02-26T19:55:08.282Z,10.10
2019-02-26T19:57:35.889Z,10.00
2019-02-26T20:00:04.196Z,10.00
2019-02-26T20:02:32.250Z,9.90
2019-02-26T20:04:59.847Z,9.80
2019-02-26T20:07:29.766Z,9.70
2019-02-26T20:09:56.884Z,9.60
2019-02-26T20:12:28.594Z,9.60
2019-02-26T20:14:53.860Z,9.60
2019-02-26T20:17:21.468Z,9.50
2019-02-26T20:19:49.092Z,9.50
2019-02-26T20:22:17.012Z,9.50
2019-02-26T20:24:45.375Z,9.50
2019-02-26T20:27:13.043Z,9.60
2019-02-26T20:29:41.776Z,9.60
2019-02-26T20:32:09.426Z,9.50
2019-02-26T20:34:37.080Z,9.40
2019-02-26T20:37:04.656Z,9.30
2019-02-26T20:39:32.437Z,9.40
2019-02-26T20:41:59.980Z,9.30
2019-02-26T20:44:27.577Z,9.40
2019-02-26T20:46:55.707Z,9.30
2019-02-26T20:49:24.640Z,9.20
2019-02-26T20:51:52.214Z,9.10
2019-02-26T20:54:19.795Z,9.10
2019-02-26T20:56:47.373Z,9.10
2019-02-26T20:59:17.588Z,9.30
2019-02-26T21:01:44.342Z,9.20
2019-02-26T21:04:11.925Z,9.30
2019-02-26T21:06:39.826Z,9.40
2019-02-26T21:09:07.893Z,9.40
2019-02-26T21:11:35.484Z,9.20
2019-02-26T21:14:07.629Z,9.10
2019-02-26T21:16:32.873Z,9.00
2019-02-26T21:19:02.676Z,8.90
2019-02-26T21:21:29.819Z,8.90
2019-02-26T21:24:00.653Z,8.90
2019-02-26T21:26:26.799Z,8.80
2019-02-26T21:28:54.395Z,8.80
2019-02-26T21:31:21.996Z,8.80
2019-02-26T21:33:49.550Z,8.90
2019-02-26T21:36:17.156Z,8.90
2019-02-26T21:38:44.732Z,8.90
2019-02-26T21:41:12.352Z,8.80
2019-02-26T21:43:39.946Z,8.80
2019-02-26T21:46:07.533Z,8.60
2019-02-26T21:48:37.277Z,8.50
2019-02-26T21:51:06.678Z,8.30
2019-02-26T21:53:34.445Z,8.20
2019-02-26T21:56:02.261Z,8.10
2019-02-26T21:58:29.845Z,8.10
2019-02-26T22:00:57.410Z,8.00
2019-02-26T22:03:25.338Z,7.90
2019-02-26T22:05:53.143Z,7.90
2019-02-26T22:08:24.559Z,8.00
2019-02-26T22:10:50.151Z,7.90
2019-02-26T22:13:17.792Z,7.90
2019-02-26T22:15:45.344Z,8.00
2019-02-26T22:18:12.936Z,8.00
2019-02-26T22:20:40.565Z,8.00
2019-02-26T22:23:08.269Z,8.00
2019-02-26T22:25:35.864Z,8.00
2019-02-26T22:28:03.579Z,8.00
2019-02-26T22:30:31.340Z,8.00
2019-02-26T22:32:58.904Z,8.00
2019-02-26T22:35:26.527Z,8.00
2019-02-26T22:37:54.104Z,7.90
2019-02-26T22:40:22.832Z,7.80
2019-02-26T22:42:50.511Z,7.80
2019-02-26T22:45:18.096Z,7.70
2019-02-26T22:47:45.719Z,7.60
2019-02-26T22:50:14.980Z,7.50
2019-02-26T22:52:42.771Z,7.50
2019-02-26T22:55:16.505Z,7.50
2019-02-26T22:57:44.102Z,7.50
2019-02-26T23:01:19.994Z,7.60
2019-02-26T23:03:47.824Z,7.70
2019-02-26T23:06:15.628Z,7.70
2019-02-26T23:08:44.876Z,7.70
2019-02-26T23:11:13.906Z,7.70
2019-02-26T23:13:41.693Z,7.50
2019-02-26T23:16:09.365Z,7.40
2019-02-26T23:18:37.700Z,7.30
2019-02-26T23:21:06.006Z,7.30
2019-02-26T23:23:33.886Z,7.30
2019-02-26T23:26:01.899Z,7.40
2019-02-26T23:28:29.484Z,7.40
2019-02-26T23:30:59.632Z,7.70
2019-02-26T23:33:26.451Z,7.80
2019-02-26T23:35:55.112Z,7.80
2019-02-26T23:38:23.327Z,7.80
2019-02-26T23:40:50.896Z,7.80
2019-02-26T23:43:18.497Z,7.90
2019-02-26T23:45:46.114Z,8.00
2019-02-26T23:48:13.912Z,8.00
2019-02-26T23:50:47.059Z,8.10
2019-02-26T23:53:13.336Z,8.00
2019-02-26T23:55:40.963Z,8.10
2019-02-26T23:58:08.584Z,8.00
